Terminal Aerodrome Forecast
Issued by NWS Duluth, MN

Home | Current Version | Previous Version | Text Only | Print | Product List | Glossary On
Versions: 1 2 3 4 5 6 7 8 9 10 11 12 13 14 15 16 17 18
000
FTUS43 KDLH 271727
TAFINL
TAF
KINL 271727Z 2718/2818 VRB03KT P6SM SKC
     FM280600 VRB03KT 3SM BR SCT025
     FM280900 00000KT 1SM BR BKN015
     FM281500 07005KT P6SM SCT025=

USA.gov is the U.S. government's official web portal to all federal, state and local government web resources and services.